Time;durP1;ratioP1;P1;durP2;ratioP2;P2;SDS_P1;SDS_P2;PMS_P1;PMS_P2;Temp;Humidity;BMP_temperature;BMP_pressure;BME280_temperature;BME280_humidity;BME280_pressure;Samples;Min_cycle;Max_cycle;Signal;HPM_P1;HPM_P2
2021/03/23 00:00:40;;;;;;;;;;;;;;;-1.61;100.00;92455.25;5011557;28;19929;-76
2021/03/23 00:03:08;;;;;;;;;;;;;;;-1.72;100.00;92449.75;5011659;28;20020;-75
2021/03/23 00:05:34;;;;;;;;;;;;;;;-1.58;100.00;92456.69;5011053;28;20390;-75
2021/03/23 00:08:00;;;;;;;;;;;;;;;-1.51;100.00;92452.63;4993465;28;19926;-76
2021/03/23 00:10:27;;;;;;;;;;;;;;;-1.49;100.00;92455.75;4991820;28;20405;-75
2021/03/23 00:12:54;;;;;;;;;;;;;;;-1.36;100.00;92457.84;4991438;28;19933;-76
2021/03/23 00:15:21;;;;;;;;;;;;;;;-1.39;100.00;92458.13;4991699;28;19929;-76
2021/03/23 00:17:47;;;;;;;;;;;;;;;-1.32;100.00;92455.78;4991399;28;19937;-76
2021/03/23 00:20:15;;;;;;;;;;;;;;;-1.27;100.00;92466.19;4991426;28;19926;-76
2021/03/23 00:22:41;;;;;;;;;;;;;;;-1.30;100.00;92465.72;4991589;28;19929;-76
2021/03/23 00:25:08;;;;;;;;;;;;;;;-1.26;100.00;92465.25;4991167;28;20375;-76
2021/03/23 00:27:34;;;;;;;;;;;;;;;-1.25;100.00;92464.28;4991213;28;19922;-76
2021/03/23 00:30:02;;;;;;;;;;;;;;;-1.23;100.00;92464.13;4991177;28;20451;-76
2021/03/23 00:32:28;;;;;;;;;;;;;;;-1.15;100.00;92469.16;4991428;28;19922;-76
2021/03/23 00:34:54;;;;;;;;;;;;;;;-1.09;100.00;92470.28;5001438;28;19928;-76
2021/03/23 00:37:21;;;;;;;;;;;;;;;-0.96;100.00;92477.41;4996839;28;19925;-76
2021/03/23 00:39:47;;;;;;;;;;;;;;;-1.05;100.00;92473.28;4991498;28;19921;-76
2021/03/23 00:42:13;;;;;;;;;;;;;;;-0.97;100.00;92473.31;4991058;28;19968;-76
2021/03/23 00:44:39;;;;;;;;;;;;;;;-1.05;100.00;92471.56;4990921;28;19921;-76
2021/03/23 00:47:06;;;;;;;;;;;;;;;-1.05;100.00;92476.59;4991457;28;19921;-76
2021/03/23 00:49:32;;;;;;;;;;;;;;;-1.00;100.00;92473.59;4990672;28;20392;-76
2021/03/23 00:51:58;;;;;;;;;;;;;;;-1.18;100.00;92471.22;4991150;28;20295;-76
2021/03/23 00:54:24;;;;;;;;;;;;;;;-1.06;100.00;92472.50;4990762;28;19922;-76
2021/03/23 00:56:50;;;;;;;;;;;;;;;-1.00;100.00;92471.09;4991003;28;19925;-76
2021/03/23 00:59:16;;;;;;;;;;;;;;;-0.93;100.00;92476.28;4990578;28;19944;-76
2021/03/23 01:01:42;;;;;;;;;;;;;;;-0.88;100.00;92474.09;4990594;28;20196;-76
2021/03/23 01:04:09;;;;;;;;;;;;;;;-0.87;100.00;92476.47;4990956;28;19926;-76
2021/03/23 01:06:35;;;;;;;;;;;;;;;-0.86;100.00;92467.13;4997236;28;19921;-76
2021/03/23 01:09:01;;;;;;;;;;;;;;;-0.83;100.00;92474.41;5010490;28;19968;-76
2021/03/23 01:11:27;;;;;;;;;;;;;;;-0.87;100.00;92476.47;5009643;28;20441;-76
2021/03/23 01:13:53;;;;;;;;;;;;;;;-0.86;100.00;92475.50;5010176;28;19983;-76
2021/03/23 01:16:19;;;;;;;;;;;;;;;-0.83;100.00;92474.41;5010194;28;19922;-76
2021/03/23 01:18:45;;;;;;;;;;;;;;;-0.77;100.00;92472.97;5009988;28;20539;-76
2021/03/23 01:21:12;;;;;;;;;;;;;;;-0.77;100.00;92467.91;5010053;28;19926;-76
2021/03/23 01:23:38;;;;;;;;;;;;;;;-0.79;100.00;92480.69;5010036;28;19921;-76
2021/03/23 01:26:04;;;;;;;;;;;;;;;-0.82;100.00;92470.94;5010108;28;19925;-76
2021/03/23 01:28:30;;;;;;;;;;;;;;;-0.91;100.00;92466.81;5010562;28;19936;-76
2021/03/23 01:30:56;;;;;;;;;;;;;;;-0.87;100.00;92468.91;5006732;28;19922;-76
2021/03/23 01:33:22;;;;;;;;;;;;;;;-0.95;100.00;92464.63;4990334;28;20413;-76
2021/03/23 01:35:48;;;;;;;;;;;;;;;-0.93;100.00;92469.50;4990317;28;19921;-76
2021/03/23 01:38:15;;;;;;;;;;;;;;;-1.03;100.00;92469.66;4990491;28;19984;-76
2021/03/23 01:40:41;;;;;;;;;;;;;;;-1.09;100.00;92466.06;4990427;28;19933;-76
2021/03/23 01:43:18;;;;;;;;;;;;;;;-1.13;100.00;92464.78;4995127;28;19921;-76
2021/03/23 01:45:44;;;;;;;;;;;;;;;-1.30;100.00;92469.00;5010036;28;19928;-77
2021/03/23 01:48:16;;;;;;;;;;;;;;;-1.41;100.00;92472.63;5009651;28;19927;-77
2021/03/23 01:50:45;;;;;;;;;;;;;;;-1.43;100.00;92469.44;5009772;28;19921;-77
2021/03/23 01:53:13;;;;;;;;;;;;;;;-1.57;100.00;92475.88;5009999;28;20039;-77
2021/03/23 01:55:40;;;;;;;;;;;;;;;-1.65;100.00;92471.63;5010048;28;19932;-77
2021/03/23 01:58:07;;;;;;;;;;;;;;;-1.51;100.00;92466.94;5009735;28;19922;-77
2021/03/23 02:00:33;;;;;;;;;;;;;;;-1.57;100.00;92475.09;5009441;28;19972;-77
2021/03/23 02:02:59;;;;;;;;;;;;;;;-1.80;100.00;92438.69;5009660;28;19921;-77
2021/03/23 02:05:26;;;;;;;;;;;;;;;-1.56;100.00;92469.94;5009638;28;20128;-77
2021/03/23 02:07:53;;;;;;;;;;;;;;;-1.61;100.00;92472.88;5009483;28;19925;-77
2021/03/23 02:10:20;;;;;;;;;;;;;;;-1.56;100.00;92464.09;5010071;28;19925;-77
2021/03/23 02:12:47;;;;;;;;;;;;;;;-1.68;100.00;92458.53;5009865;28;19952;-77
2021/03/23 02:15:14;;;;;;;;;;;;;;;-1.61;100.00;92465.31;5009426;28;20402;-77
2021/03/23 02:17:40;;;;;;;;;;;;;;;-1.61;100.00;92462.81;5009510;28;19952;-77
2021/03/23 02:20:08;;;;;;;;;;;;;;;-1.70;100.00;92468.78;5009759;28;19932;-77
2021/03/23 02:22:36;;;;;;;;;;;;;;;-1.69;100.00;92475.41;5010491;28;19955;-77
2021/03/23 02:25:03;;;;;;;;;;;;;;;-1.68;100.00;92476.16;5013464;28;20116;-77
2021/03/23 02:27:29;;;;;;;;;;;;;;;-1.67;100.00;92478.53;5013414;28;20326;-77
2021/03/23 02:29:57;;;;;;;;;;;;;;;-1.63;100.00;92482.34;5012901;28;20020;-77
2021/03/23 02:32:23;;;;;;;;;;;;;;;-1.61;100.00;92487.22;5007168;28;19921;-77
2021/03/23 02:34:50;;;;;;;;;;;;;;;-1.56;100.00;92487.56;5013269;28;19933;-76
2021/03/23 02:37:16;;;;;;;;;;;;;;;-1.53;100.00;92477.16;5013300;28;19993;-76
2021/03/23 02:39:43;;;;;;;;;;;;;;;-1.46;100.00;92482.38;5012927;28;20275;-76
2021/03/23 02:42:10;;;;;;;;;;;;;;;-1.55;100.00;92480.78;5012729;28;19921;-77
2021/03/23 02:44:37;;;;;;;;;;;;;;;-1.65;100.00;92486.75;5013137;28;19932;-77
2021/03/23 02:47:03;;;;;;;;;;;;;;;-1.66;100.00;92489.41;5012747;28;19922;-76
2021/03/23 02:49:29;;;;;;;;;;;;;;;-1.53;100.00;92491.50;5012988;28;19925;-76
2021/03/23 02:51:55;;;;;;;;;;;;;;;-1.46;100.00;92489.94;5012721;28;19971;-76
2021/03/23 02:54:21;;;;;;;;;;;;;;;-1.43;100.00;92486.31;5012580;28;19926;-76
2021/03/23 02:56:48;;;;;;;;;;;;;;;-1.46;100.00;92492.44;5012539;28;19922;-76
2021/03/23 02:59:14;;;;;;;;;;;;;;;-1.45;100.00;92488.97;5012627;28;19921;-76
2021/03/23 03:01:40;;;;;;;;;;;;;;;-1.51;100.00;92497.97;5012410;28;19921;-76
2021/03/23 03:04:06;;;;;;;;;;;;;;;-1.51;100.00;92489.59;5012463;28;19926;-76
2021/03/23 03:06:32;;;;;;;;;;;;;;;-1.55;100.00;92496.69;5012068;28;19932;-76
2021/03/23 03:08:58;;;;;;;;;;;;;;;-1.52;100.00;92491.31;5012662;28;20386;-76
2021/03/23 03:11:24;;;;;;;;;;;;;;;-1.57;100.00;92488.47;5012735;28;19929;-76
2021/03/23 03:13:51;;;;;;;;;;;;;;;-1.61;100.00;92498.06;5012324;28;19932;-76
2021/03/23 03:16:18;;;;;;;;;;;;;;;-1.59;100.00;92492.88;5012583;28;19925;-76
2021/03/23 03:18:44;;;;;;;;;;;;;;;-1.59;100.00;92499.66;5012504;28;19925;-76
2021/03/23 03:21:10;;;;;;;;;;;;;;;-1.56;100.00;92502.66;5011216;28;19921;-76
2021/03/23 03:23:36;;;;;;;;;;;;;;;-1.57;100.00;92505.34;5011896;28;19925;-76
2021/03/23 03:26:03;;;;;;;;;;;;;;;-1.59;100.00;92500.44;5011999;28;19932;-75
2021/03/23 03:28:29;;;;;;;;;;;;;;;-1.62;100.00;92503.28;5012286;28;19921;-76
2021/03/23 03:30:56;;;;;;;;;;;;;;;-1.64;100.00;92498.41;5008735;28;19932;-76
2021/03/23 03:33:23;;;;;;;;;;;;;;;-1.64;100.00;92502.63;4992148;28;20264;-77
2021/03/23 03:35:50;;;;;;;;;;;;;;;-1.65;100.00;92501.84;4992596;28;20009;-76
2021/03/23 03:38:17;;;;;;;;;;;;;;;-1.70;100.00;92499.00;4992364;28;19976;-77
2021/03/23 03:40:45;;;;;;;;;;;;;;;-1.70;100.00;92505.75;4992301;28;19921;-78
2021/03/23 03:43:12;;;;;;;;;;;;;;;-1.74;100.00;92505.28;4992390;28;19926;-77
2021/03/23 03:45:38;;;;;;;;;;;;;;;-1.68;100.00;92503.88;4992185;28;19976;-77
2021/03/23 03:48:06;;;;;;;;;;;;;;;-1.69;100.00;92510.66;4992405;28;19921;-77
2021/03/23 03:50:32;;;;;;;;;;;;;;;-1.68;100.00;92506.38;4992144;28;19933;-77
2021/03/23 03:52:58;;;;;;;;;;;;;;;-1.65;100.00;92508.59;4991968;28;19929;-77
2021/03/23 03:55:25;;;;;;;;;;;;;;;-1.68;100.00;92512.22;4992221;28;19929;-77
2021/03/23 03:57:51;;;;;;;;;;;;;;;-1.61;100.00;92513.19;4991886;28;19936;-78
2021/03/23 04:00:18;;;;;;;;;;;;;;;-1.70;100.00;92509.06;4992289;28;19925;-76
2021/03/23 04:02:44;;;;;;;;;;;;;;;-1.71;100.00;92507.47;4991690;28;19921;-78
2021/03/23 04:05:16;;;;;;;;;;;;;;;-1.73;100.00;92513.63;4991973;28;19922;-76
2021/03/23 04:07:43;;;;;;;;;;;;;;;-1.76;100.00;92512.97;5007209;28;19929;-76
2021/03/23 04:10:09;;;;;;;;;;;;;;;-1.80;100.00;92514.22;5011131;28;19925;-75
2021/03/23 04:12:35;;;;;;;;;;;;;;;-1.76;100.00;92515.50;5010981;28;19968;-76
2021/03/23 04:15:01;;;;;;;;;;;;;;;-1.72;100.00;92523.53;5011395;28;19929;-77
2021/03/23 04:17:27;;;;;;;;;;;;;;;-1.75;100.00;92526.38;5011011;28;19936;-76
2021/03/23 04:19:53;;;;;;;;;;;;;;;-1.70;100.00;92520.88;5011112;28;19922;-77
2021/03/23 04:22:20;;;;;;;;;;;;;;;-1.67;100.00;92528.13;5011191;28;19922;-76
2021/03/23 04:24:46;;;;;;;;;;;;;;;-1.63;100.00;92522.63;5011146;28;19921;-78
2021/03/23 04:27:12;;;;;;;;;;;;;;;-1.65;100.00;92534.59;5010833;28;20387;-79
2021/03/23 04:29:38;;;;;;;;;;;;;;;-1.53;100.00;92529.28;5010776;28;19925;-78
2021/03/23 04:32:05;;;;;;;;;;;;;;;-1.52;100.00;92536.66;5011009;28;19921;-76
2021/03/23 04:34:31;;;;;;;;;;;;;;;-1.66;100.00;92543.06;5010799;28;19921;-77
2021/03/23 04:37:03;;;;;;;;;;;;;;;-1.65;100.00;92544.66;5010815;28;19925;-78
2021/03/23 04:39:30;;;;;;;;;;;;;;;-1.59;100.00;92542.50;5010974;28;20275;-78
2021/03/23 04:41:56;;;;;;;;;;;;;;;-1.55;100.00;92549.56;5010452;28;19928;-78
2021/03/23 04:44:22;;;;;;;;;;;;;;;-1.55;100.00;92549.56;5010343;28;19925;-77
2021/03/23 04:46:48;;;;;;;;;;;;;;;-1.64;100.00;92548.75;5009889;28;19921;-77
2021/03/23 04:49:14;;;;;;;;;;;;;;;-1.62;100.00;92554.41;5010705;28;19921;-78
2021/03/23 04:51:40;;;;;;;;;;;;;;;-1.66;100.00;92553.13;5010759;28;19925;-78
2021/03/23 04:54:07;;;;;;;;;;;;;;;-1.67;100.00;92551.56;5010354;28;20414;-78
2021/03/23 04:56:36;;;;;;;;;;;;;;;-1.58;100.00;92559.16;5010194;28;19925;-77
2021/03/23 04:59:02;;;;;;;;;;;;;;;-1.50;100.00;92559.97;5010352;28;19925;-78
2021/03/23 05:01:28;;;;;;;;;;;;;;;-1.57;100.00;92555.69;5010777;28;20291;-76
2021/03/23 05:03:55;;;;;;;;;;;;;;;-1.49;100.00;92554.00;5010340;28;19921;-76
2021/03/23 05:06:21;;;;;;;;;;;;;;;-1.61;100.00;92545.91;5010594;28;19929;-76
2021/03/23 05:08:47;;;;;;;;;;;;;;;-1.53;100.00;92552.72;5010557;28;19953;-76
2021/03/23 05:11:14;;;;;;;;;;;;;;;-1.55;100.00;92556.34;5010065;28;19933;-76
2021/03/23 05:13:41;;;;;;;;;;;;;;;-1.59;100.00;92552.56;5010519;28;19929;-76
2021/03/23 05:16:08;;;;;;;;;;;;;;;-1.70;100.00;92559.44;5010289;28;20390;-77
2021/03/23 05:18:34;;;;;;;;;;;;;;;-1.55;100.00;92561.38;5010022;28;20015;-76
2021/03/23 05:21:00;;;;;;;;;;;;;;;-1.62;100.00;92556.94;5010220;28;19932;-76
2021/03/23 05:23:26;;;;;;;;;;;;;;;-1.53;100.00;92559.50;5010395;28;20267;-76
2021/03/23 05:25:52;;;;;;;;;;;;;;;-1.50;100.00;92557.47;5010077;28;20016;-76
2021/03/23 05:28:19;;;;;;;;;;;;;;;-1.55;100.00;92554.63;5010341;28;19958;-75
2021/03/23 05:30:46;;;;;;;;;;;;;;;-1.57;100.00;92555.69;5009914;28;19928;-76
2021/03/23 05:33:13;;;;;;;;;;;;;;;-1.52;100.00;92564.38;5009622;28;20421;-76
2021/03/23 05:35:39;;;;;;;;;;;;;;;-1.51;100.00;92560.94;5009813;28;20394;-76
2021/03/23 05:38:05;;;;;;;;;;;;;;;-1.49;100.00;92554.00;5010077;28;19933;-75
2021/03/23 05:40:32;;;;;;;;;;;;;;;-1.50;100.00;92559.97;5009766;28;20298;-75
2021/03/23 05:43:05;;;;;;;;;;;;;;;-1.47;100.00;92571.50;5010045;28;19925;-75
2021/03/23 05:45:33;;;;;;;;;;;;;;;-1.46;100.00;92569.75;5010035;28;19925;-76
2021/03/23 05:48:13;;;;;;;;;;;;;;;-1.44;100.00;92568.66;5010048;28;19921;-77
2021/03/23 05:50:42;;;;;;;;;;;;;;;-1.41;100.00;92570.88;5009987;28;20307;-77
2021/03/23 05:53:13;;;;;;;;;;;;;;;-1.52;100.00;92569.41;5009788;28;19933;-75
2021/03/23 05:55:41;;;;;;;;;;;;;;;-1.44;100.00;92576.22;5009655;28;19921;-75
2021/03/23 05:58:15;;;;;;;;;;;;;;;-1.39;100.00;92575.78;5013125;28;20008;-75
2021/03/23 06:00:42;;;;;;;;;;;;;;;-1.40;100.00;92577.50;5013725;28;20310;-76
2021/03/23 06:03:18;;;;;;;;;;;;;;;-1.41;100.00;92583.47;5013805;28;19944;-77
2021/03/23 06:05:47;;;;;;;;;;;;;;;-1.43;100.00;92577.00;5013487;28;19922;-77
2021/03/23 06:08:18;;;;;;;;;;;;;;;-1.39;100.00;92588.38;5013519;28;20306;-77
2021/03/23 06:10:45;;;;;;;;;;;;;;;-1.29;100.00;92588.22;5013743;28;20008;-75
2021/03/23 06:13:17;;;;;;;;;;;;;;;-1.36;100.00;92588.03;5013308;28;20017;-75
2021/03/23 06:15:44;;;;;;;;;;;;;;;-1.32;100.00;92598.59;5013653;28;19983;-76
2021/03/23 06:18:18;;;;;;;;;;;;;;;-1.37;100.00;92591.50;5013594;28;20495;-80
2021/03/23 06:20:51;;;;;;;;;;;;;;;-1.23;100.00;92595.97;5013609;28;19932;-79
2021/03/23 06:23:35;;;;;;;;;;;;;;;-1.22;100.00;92597.56;5013430;28;19925;-77
2021/03/23 06:26:05;;;;;;;;;;;;;;;-1.24;100.00;92609.50;5013371;28;20318;-77
2021/03/23 06:28:39;;;;;;;;;;;;;;;-1.12;100.00;92604.97;5013352;28;19921;-77
2021/03/23 06:31:15;;;;;;;;;;;;;;;-0.93;100.00;92603.13;5013330;28;19929;-77
2021/03/23 06:33:41;;;;;;;;;;;;;;;-0.73;100.00;92611.22;5013242;28;19921;-76
2021/03/23 06:36:18;;;;;;;;;;;;;;;-0.74;100.00;92612.13;5013026;28;19936;-77
2021/03/23 06:38:44;;;;;;;;;;;;;;;-0.55;100.00;92617.84;5013076;28;20280;-76
2021/03/23 06:41:12;;;;;;;;;;;;;;;-0.57;100.00;92618.00;5013055;28;19922;-76
2021/03/23 06:43:39;;;;;;;;;;;;;;;-0.55;100.00;92621.16;5012903;28;20301;-76
2021/03/23 06:46:06;;;;;;;;;;;;;;;-0.45;100.00;92625.28;5012776;28;19925;-76
2021/03/23 06:48:33;;;;;;;;;;;;;;;-0.41;100.00;92629.06;5012929;28;19925;-76
2021/03/23 06:51:07;;;;;;;;;;;;;;;-0.15;100.00;92636.47;5012646;28;19921;-76
2021/03/23 06:53:34;;;;;;;;;;;;;;;-0.01;100.00;92642.63;5012533;28;19951;-76
2021/03/23 06:56:15;;;;;;;;;;;;;;;0.37;100.00;92631.22;5012834;28;19921;-77
2021/03/23 06:58:41;;;;;;;;;;;;;;;0.44;100.00;92633.84;5012539;28;20401;-77
2021/03/23 07:01:17;;;;;;;;;;;;;;;0.47;100.00;92633.53;5012304;28;19967;-76
2021/03/23 07:03:45;;;;;;;;;;;;;;;0.67;100.00;92633.97;5012344;28;20434;-76
2021/03/23 07:06:23;;;;;;;;;;;;;;;0.69;100.00;92639.63;5012454;28;19921;-76
2021/03/23 07:09:06;;;;;;;;;;;;;;;0.54;100.00;92644.56;5005811;28;19932;-77
2021/03/23 07:11:47;;;;;;;;;;;;;;;0.69;100.00;92641.38;5010958;28;20236;-76
2021/03/23 07:14:21;;;;;;;;;;;;;;;0.59;100.00;92644.06;5012199;28;19929;-76
2021/03/23 07:16:48;;;;;;;;;;;;;;;0.52;100.00;92639.69;5012348;28;19925;-76
2021/03/23 07:19:14;;;;;;;;;;;;;;;0.61;100.00;92639.66;5011860;28;20375;-76
2021/03/23 07:21:43;;;;;;;;;;;;;;;0.82;100.00;92656.03;5012401;28;20286;-76
2021/03/23 07:24:11;;;;;;;;;;;;;;;1.06;100.00;92657.66;5012008;28;19928;-76
2021/03/23 07:26:37;;;;;;;;;;;;;;;0.93;100.00;92668.31;5011922;28;20386;-76
2021/03/23 07:29:21;;;;;;;;;;;;;;;0.93;100.00;92663.25;5011892;28;20370;-76
2021/03/23 07:31:53;;;;;;;;;;;;;;;1.10;100.00;92663.19;5011785;28;19921;-76
2021/03/23 07:34:22;;;;;;;;;;;;;;;1.20;100.00;92662.03;5012030;28;19921;-76
2021/03/23 07:36:50;;;;;;;;;;;;;;;1.11;100.00;92669.84;5011453;28;19926;-76
2021/03/23 07:39:20;;;;;;;;;;;;;;;0.93;100.00;92673.38;5011652;28;19930;-76
2021/03/23 07:41:48;;;;;;;;;;;;;;;0.81;100.00;92670.41;5011832;28;20329;-76
2021/03/23 07:44:21;;;;;;;;;;;;;;;0.52;100.00;92676.81;5011715;28;19967;-76
2021/03/23 07:46:51;;;;;;;;;;;;;;;0.23;100.00;92686.47;5011764;28;19925;-76
2021/03/23 07:49:30;;;;;;;;;;;;;;;0.25;100.00;92683.78;5011377;28;20394;-76
2021/03/23 07:52:01;;;;;;;;;;;;;;;0.36;100.00;92685.19;5011182;28;19921;-76
2021/03/23 07:54:30;;;;;;;;;;;;;;;0.37;100.00;92684.28;5011716;28;19921;-76
2021/03/23 07:56:59;;;;;;;;;;;;;;;0.32;100.00;92696.59;5011569;28;19925;-76
2021/03/23 07:59:33;;;;;;;;;;;;;;;0.48;100.00;92699.09;5011504;28;19929;-76
2021/03/23 08:02:05;;;;;;;;;;;;;;;0.45;100.00;92701.94;5011273;28;19939;-76
2021/03/23 08:04:48;;;;;;;;;;;;;;;0.44;100.00;92695.31;5011548;28;19925;-76
2021/03/23 08:07:20;;;;;;;;;;;;;;;0.43;100.00;92697.97;5010192;28;19949;-76
2021/03/23 08:10:07;;;;;;;;;;;;;;;0.54;100.00;92697.66;5011451;28;19922;-76
2021/03/23 08:12:46;;;;;;;;;;;;;;;0.60;100.00;92686.13;5010780;28;19925;-76
2021/03/23 08:15:18;;;;;;;;;;;;;;;0.46;100.00;92692.63;5011148;28;19925;-76
2021/03/23 08:18:11;;;;;;;;;;;;;;;0.15;100.00;92688.22;5010959;28;19928;-76
2021/03/23 08:20:44;;;;;;;;;;;;;;;0.17;100.00;92691.38;4975620;28;20012;-76
2021/03/23 08:23:22;;;;;;;;;;;;;;;0.23;100.00;92694.06;5011003;28;19925;-76
2021/03/23 08:25:49;;;;;;;;;;;;;;;0.05;100.00;92695.97;5010959;28;19928;-76
2021/03/23 08:28:36;;;;;;;;;;;;;;;-0.07;100.00;92700.53;5010560;28;19972;-76
2021/03/23 08:31:23;;;;;;;;;;;;;;;-0.28;100.00;92700.03;5010718;28;19928;-76
2021/03/23 08:33:59;;;;;;;;;;;;;;;-0.11;100.00;92702.59;5011001;28;20306;-76
2021/03/23 08:36:55;;;;;;;;;;;;;;;-0.37;100.00;92710.28;5010501;28;20386;-76
2021/03/23 08:39:28;;;;;;;;;;;;;;;-0.29;100.00;92708.56;4957415;28;19981;-76
2021/03/23 08:41:58;;;;;;;;;;;;;;;-0.36;100.00;92702.56;5010623;28;20285;-76
2021/03/23 08:44:35;;;;;;;;;;;;;;;-0.33;100.00;92712.34;5010489;28;20374;-76
2021/03/23 08:47:07;;;;;;;;;;;;;;;-0.55;100.00;92701.88;5010476;28;20016;-76
2021/03/23 08:49:34;;;;;;;;;;;;;;;-0.45;100.00;92706.81;5010514;28;19921;-76
2021/03/23 08:52:02;;;;;;;;;;;;;;;-0.23;100.00;92709.66;5010283;28;20413;-77
2021/03/23 08:54:45;;;;;;;;;;;;;;;0.04;100.00;92709.53;5010637;28;19922;-76
2021/03/23 08:57:11;;;;;;;;;;;;;;;0.14;100.00;92715.22;5010531;28;19961;-77
2021/03/23 08:59:41;;;;;;;;;;;;;;;0.25;100.00;92712.38;5010284;28;19967;-76
2021/03/23 09:02:23;;;;;;;;;;;;;;;0.38;100.00;92709.34;5010179;28;19925;-76
2021/03/23 09:04:55;;;;;;;;;;;;;;;0.28;100.00;92715.53;5009955;28;19968;-77
2021/03/23 09:07:22;;;;;;;;;;;;;;;0.33;100.00;92721.66;5009985;28;19921;-76
2021/03/23 09:09:51;;;;;;;;;;;;;;;0.62;99.74;92727.97;5010342;28;19983;-76
2021/03/23 09:12:32;;;;;;;;;;;;;;;0.79;99.28;92712.78;5010187;28;19932;-76
2021/03/23 09:15:15;;;;;;;;;;;;;;;1.11;99.27;92718.66;5009749;28;19921;-76
2021/03/23 09:17:49;;;;;;;;;;;;;;;1.22;95.35;92732.72;5010313;28;19929;-76
2021/03/23 09:20:34;;;;;;;;;;;;;;;1.30;97.38;92717.47;5010015;28;19929;-76
2021/03/23 09:23:32;;;;;;;;;;;;;;;1.17;94.56;92719.75;5010222;28;20260;-77
2021/03/23 09:25:59;;;;;;;;;;;;;;;1.35;94.76;92721.28;5009936;28;19932;-76
2021/03/23 09:28:44;;;;;;;;;;;;;;;0.96;94.75;92722.84;5009851;28;19928;-76
2021/03/23 09:31:10;;;;;;;;;;;;;;;0.71;95.30;92727.94;5009664;28;19925;-76
2021/03/23 09:33:39;;;;;;;;;;;;;;;0.63;97.81;92738.84;5009673;28;19921;-77
2021/03/23 09:36:38;;;;;;;;;;;;;;;0.73;96.84;92734.41;5009716;28;19968;-76
2021/03/23 09:39:22;;;;;;;;;;;;;;;0.72;95.69;92732.06;5009718;28;19932;-77
2021/03/23 09:41:52;;;;;;;;;;;;;;;0.88;96.89;92726.97;5009749;28;19948;-77
2021/03/23 09:44:37;;;;;;;;;;;;;;;1.15;96.52;92721.69;5009705;28;19922;-76
2021/03/23 09:47:03;;;;;;;;;;;;;;;0.99;95.71;92722.50;5009864;28;19984;-76
2021/03/23 09:49:41;;;;;;;;;;;;;;;1.26;96.08;92721.31;5009903;28;19921;-76
2021/03/23 09:52:12;;;;;;;;;;;;;;;1.23;92.46;92734.28;5009524;28;19921;-76
2021/03/23 09:54:39;;;;;;;;;;;;;;;1.04;92.21;92737.97;5009347;28;19921;-76
2021/03/23 09:57:11;;;;;;;;;;;;;;;0.91;93.92;92735.97;5009718;28;19967;-77
2021/03/23 09:59:48;;;;;;;;;;;;;;;1.02;94.31;92732.31;5010066;28;19968;-76
2021/03/23 10:02:20;;;;;;;;;;;;;;;1.09;94.09;92738.28;5009220;28;20379;-76
2021/03/23 10:04:47;;;;;;;;;;;;;;;0.85;94.68;92742.47;5009396;28;19925;-76
2021/03/23 10:07:25;;;;;;;;;;;;;;;0.98;95.73;92731.84;5009548;28;19925;-76
2021/03/23 10:09:51;;;;;;;;;;;;;;;0.77;96.13;92734.88;5009668;28;19921;-77
2021/03/23 10:12:35;;;;;;;;;;;;;;;0.71;94.81;92735.53;5009851;28;19976;-77
2021/03/23 10:15:17;;;;;;;;;;;;;;;1.11;95.13;92726.25;5010358;28;19995;-76
2021/03/23 10:17:43;;;;;;;;;;;;;;;1.40;93.14;92734.22;5010243;28;19921;-76
2021/03/23 10:20:10;;;;;;;;;;;;;;;1.06;92.61;92729.28;5010181;28;20363;-76
2021/03/23 10:22:38;;;;;;;;;;;;;;;1.14;92.60;92727.66;5001577;28;19926;-77
2021/03/23 10:25:06;;;;;;;;;;;;;;;1.52;92.44;92722.00;4997242;28;19996;-77
2021/03/23 10:27:34;;;;;;;;;;;;;;;2.05;90.70;92739.88;4999624;28;19925;-77
2021/03/23 10:30:08;;;;;;;;;;;;;;;2.03;90.10;92733.41;4997357;28;19928;-77
2021/03/23 10:32:46;;;;;;;;;;;;;;;2.33;89.40;92736.03;4998955;28;19921;-76
2021/03/23 10:35:15;;;;;;;;;;;;;;;2.70;89.83;92741.25;4998728;28;20425;-77
2021/03/23 10:37:41;;;;;;;;;;;;;;;2.42;86.67;92740.06;4998445;28;20012;-76
2021/03/23 10:40:26;;;;;;;;;;;;;;;2.67;88.75;92738.13;4996492;28;19948;-77
2021/03/23 10:42:53;;;;;;;;;;;;;;;2.69;86.31;92742.22;4999359;28;19977;-77
2021/03/23 10:45:28;;;;;;;;;;;;;;;2.53;87.55;92739.66;5002983;28;19928;-76
2021/03/23 10:48:03;;;;;;;;;;;;;;;2.56;87.69;92746.13;5000794;28;19925;-76
2021/03/23 10:50:32;;;;;;;;;;;;;;;2.09;88.76;92753.00;5001767;28;19922;-76
2021/03/23 10:53:10;;;;;;;;;;;;;;;2.19;88.58;92747.69;5002111;28;19929;-76
2021/03/23 10:55:39;;;;;;;;;;;;;;;1.58;89.40;92749.94;5000453;28;19922;-76
2021/03/23 10:58:15;;;;;;;;;;;;;;;1.53;92.07;92744.59;4992659;28;20007;-76
2021/03/23 11:00:41;;;;;;;;;;;;;;;1.88;90.79;92739.19;4995492;28;20417;-77
2021/03/23 11:03:31;;;;;;;;;;;;;;;1.96;90.31;92741.69;5004063;28;20008;-76
2021/03/23 11:05:59;;;;;;;;;;;;;;;1.97;91.03;92743.25;4994676;28;19921;-76
2021/03/23 11:08:26;;;;;;;;;;;;;;;1.51;91.25;92748.22;5004570;28;19922;-77
2021/03/23 11:10:55;;;;;;;;;;;;;;;1.90;91.53;92736.50;5012330;28;20055;-77
2021/03/23 11:13:21;;;;;;;;;;;;;;;1.92;89.51;92739.63;5012302;28;19929;-77
2021/03/23 11:15:47;;;;;;;;;;;;;;;1.86;89.17;92739.34;5012276;28;19921;-77
2021/03/23 11:18:16;;;;;;;;;;;;;;;1.93;89.90;92746.25;5012647;28;20028;-77
2021/03/23 11:20:43;;;;;;;;;;;;;;;1.68;90.35;92742.16;5009007;28;20009;-77
2021/03/23 11:23:20;;;;;;;;;;;;;;;1.82;89.75;92742.38;5001884;28;19925;-77
2021/03/23 11:25:47;;;;;;;;;;;;;;;1.75;90.41;92746.56;5002395;28;19926;-77
2021/03/23 11:28:16;;;;;;;;;;;;;;;1.93;90.26;92736.13;5000408;28;19925;-77
2021/03/23 11:30:42;;;;;;;;;;;;;;;2.37;87.56;92743.09;4995009;28;19929;-77
2021/03/23 11:33:08;;;;;;;;;;;;;;;2.70;88.00;92739.53;4992157;28;19925;-77
2021/03/23 11:35:37;;;;;;;;;;;;;;;2.65;88.28;92739.25;4991939;28;19922;-77
2021/03/23 11:38:03;;;;;;;;;;;;;;;2.84;85.89;92749.84;4988361;28;20381;-77
2021/03/23 11:40:30;;;;;;;;;;;;;;;2.90;85.86;92747.41;5008104;28;20312;-77
2021/03/23 11:42:56;;;;;;;;;;;;;;;3.07;85.39;92745.47;5010935;28;19921;-77
2021/03/23 11:45:27;;;;;;;;;;;;;;;3.46;85.08;92736.00;5011890;28;19921;-77
2021/03/23 11:47:56;;;;;;;;;;;;;;;3.44;83.63;92737.16;5001391;28;19926;-77
2021/03/23 11:50:24;;;;;;;;;;;;;;;3.26;82.85;92737.50;4992092;28;19965;-77
2021/03/23 11:52:52;;;;;;;;;;;;;;;3.45;82.08;92738.72;4992287;28;19925;-77
2021/03/23 11:55:19;;;;;;;;;;;;;;;3.38;84.31;92733.56;4991767;28;19929;-77
2021/03/23 11:57:46;;;;;;;;;;;;;;;3.31;83.83;92733.50;4991927;28;19928;-77
2021/03/23 12:00:14;;;;;;;;;;;;;;;2.95;84.88;92736.72;4991634;28;20380;-77
2021/03/23 12:02:40;;;;;;;;;;;;;;;2.70;86.94;92741.25;4991653;28;19922;-77
2021/03/23 12:05:08;;;;;;;;;;;;;;;2.68;87.43;92738.88;4991769;28;19926;-77
2021/03/23 12:07:39;;;;;;;;;;;;;;;2.66;87.96;92738.28;4991613;28;19925;-77
2021/03/23 12:10:07;;;;;;;;;;;;;;;2.35;84.77;92739.16;4991919;28;19926;-76
2021/03/23 12:12:37;;;;;;;;;;;;;;;2.18;87.91;92741.81;4991546;28;19949;-76
2021/03/23 12:15:09;;;;;;;;;;;;;;;2.29;86.21;92738.13;4999073;28;19929;-76
2021/03/23 12:17:37;;;;;;;;;;;;;;;2.29;88.21;92738.13;5011115;28;19925;-76
2021/03/23 12:20:05;;;;;;;;;;;;;;;2.43;88.22;92735.78;5003360;28;19921;-76
2021/03/23 12:22:32;;;;;;;;;;;;;;;2.50;89.44;92731.63;5010919;28;19936;-76
2021/03/23 12:24:58;;;;;;;;;;;;;;;2.43;86.53;92734.03;5010999;28;19921;-76
2021/03/23 12:27:25;;;;;;;;;;;;;;;2.33;88.54;92736.03;5011168;28;19921;-76
2021/03/23 12:29:51;;;;;;;;;;;;;;;2.37;87.98;92738.03;5002337;28;20391;-76
2021/03/23 12:32:18;;;;;;;;;;;;;;;2.19;89.04;92735.03;5007645;28;20433;-76
2021/03/23 12:34:44;;;;;;;;;;;;;;;2.04;90.79;92728.13;5001987;28;19925;-75
2021/03/23 12:37:11;;;;;;;;;;;;;;;1.82;90.31;92730.53;5001404;28;20404;-76
2021/03/23 12:39:37;;;;;;;;;;;;;;;1.81;92.59;92730.69;4999545;28;20436;-76
2021/03/23 12:42:04;;;;;;;;;;;;;;;1.81;92.38;92728.94;5001425;28;19929;-78
2021/03/23 12:44:30;;;;;;;;;;;;;;;1.72;92.20;92727.41;4994195;28;19971;-76
2021/03/23 12:46:56;;;;;;;;;;;;;;;1.60;91.04;92727.00;5010700;28;19925;-76
2021/03/23 12:49:23;;;;;;;;;;;;;;;1.20;91.78;92730.34;5010872;28;19921;-76
2021/03/23 12:51:50;;;;;;;;;;;;;;;1.22;94.12;92732.72;5010630;28;19926;-76
2021/03/23 12:54:17;;;;;;;;;;;;;;;1.13;92.89;92738.75;5010326;28;20380;-75